sensor_id;sensor_type;location;lat;lon;timestamp;P1;P2;P0
50587;PMS7003;70782;50.514;30.816;2023-11-21T00:00:36;30.80;30.60;20.30
50587;PMS7003;70782;50.514;30.816;2023-11-21T00:01:38;32.73;29.64;18.82
50587;PMS7003;70782;50.514;30.816;2023-11-21T00:02:41;28.80;28.50;17.20
50587;PMS7003;70782;50.514;30.816;2023-11-21T00:03:44;27.80;25.90;18.80
50587;PMS7003;70782;50.514;30.816;2023-11-21T00:04:47;31.90;29.90;19.70
50587;PMS7003;70782;50.514;30.816;2023-11-21T00:05:50;35.20;30.70;19.00
50587;PMS7003;70782;50.514;30.816;2023-11-21T00:06:53;39.00;34.40;21.30
50587;PMS7003;70782;50.514;30.816;2023-11-21T00:07:56;40.70;36.10;21.50
50587;PMS7003;70782;50.514;30.816;2023-11-21T00:08:59;43.50;38.60;25.30
50587;PMS7003;70782;50.514;30.816;2023-11-21T00:10:01;42.10;38.10;24.80
50587;PMS7003;70782;50.514;30.816;2023-11-21T00:11:23;39.80;35.30;22.00
50587;PMS7003;70782;50.514;30.816;2023-11-21T00:12:44;41.40;37.00;23.60
50587;PMS7003;70782;50.514;30.816;2023-11-21T00:14:05;42.50;40.00;25.90
50587;PMS7003;70782;50.514;30.816;2023-11-21T00:15:26;49.20;40.10;24.80
50587;PMS7003;70782;50.514;30.816;2023-11-21T00:16:47;36.00;35.40;23.10
50587;PMS7003;70782;50.514;30.816;2023-11-21T00:18:08;44.80;37.20;23.80
50587;PMS7003;70782;50.514;30.816;2023-11-21T00:19:29;44.00;38.40;24.60
50587;PMS7003;70782;50.514;30.816;2023-11-21T00:20:50;45.70;40.80;24.90
50587;PMS7003;70782;50.514;30.816;2023-11-21T00:22:11;42.00;38.90;25.20
50587;PMS7003;70782;50.514;30.816;2023-11-21T00:23:14;49.00;40.80;26.50
50587;PMS7003;70782;50.514;30.816;2023-11-21T00:24:16;31.10;26.30;14.20
50587;PMS7003;70782;50.514;30.816;2023-11-21T00:25:19;40.40;35.60;21.10
50587;PMS7003;70782;50.514;30.816;2023-11-21T00:26:22;40.09;36.18;19.55
50587;PMS7003;70782;50.514;30.816;2023-11-21T00:27:26;44.40;37.50;24.00
50587;PMS7003;70782;50.514;30.816;2023-11-21T00:28:29;41.90;38.90;24.90
50587;PMS7003;70782;50.514;30.816;2023-11-21T00:29:31;48.80;42.70;26.20
50587;PMS7003;70782;50.514;30.816;2023-11-21T00:30:34;43.70;37.80;25.30
50587;PMS7003;70782;50.514;30.816;2023-11-21T00:31:37;41.50;38.60;25.70
50587;PMS7003;70782;50.514;30.816;2023-11-21T00:32:41;44.10;39.90;24.90
50587;PMS7003;70782;50.514;30.816;2023-11-21T00:33:44;33.10;33.00;23.00
50587;PMS7003;70782;50.514;30.816;2023-11-21T00:34:47;38.80;35.70;24.80
50587;PMS7003;70782;50.514;30.816;2023-11-21T00:35:50;45.20;40.50;25.70
50587;PMS7003;70782;50.514;30.816;2023-11-21T00:36:53;45.09;38.82;26.45
50587;PMS7003;70782;50.514;30.816;2023-11-21T00:37:55;47.20;41.90;26.90
50587;PMS7003;70782;50.514;30.816;2023-11-21T00:38:58;52.20;43.70;26.80
50587;PMS7003;70782;50.514;30.816;2023-11-21T00:40:01;50.20;40.90;26.10
50587;PMS7003;70782;50.514;30.816;2023-11-21T00:41:04;44.09;39.18;23.91
50587;PMS7003;70782;50.514;30.816;2023-11-21T00:42:06;43.00;38.00;23.60
50587;PMS7003;70782;50.514;30.816;2023-11-21T00:43:09;58.60;46.10;29.20
50587;PMS7003;70782;50.514;30.816;2023-11-21T00:44:12;56.70;46.00;29.10
50587;PMS7003;70782;50.514;30.816;2023-11-21T00:45:14;54.80;45.50;29.00
50587;PMS7003;70782;50.514;30.816;2023-11-21T00:46:17;58.70;46.60;29.10
50587;PMS7003;70782;50.514;30.816;2023-11-21T00:47:20;62.45;50.09;32.00
50587;PMS7003;70782;50.514;30.816;2023-11-21T00:48:23;57.00;47.40;29.60
50587;PMS7003;70782;50.514;30.816;2023-11-21T00:49:25;64.00;49.90;29.90
50587;PMS7003;70782;50.514;30.816;2023-11-21T00:50:28;60.80;47.40;29.20
50587;PMS7003;70782;50.514;30.816;2023-11-21T00:51:31;56.40;46.40;24.30
50587;PMS7003;70782;50.514;30.816;2023-11-21T00:52:34;49.82;42.27;26.00
50587;PMS7003;70782;50.514;30.816;2023-11-21T00:53:37;38.70;35.20;15.20
50587;PMS7003;70782;50.514;30.816;2023-11-21T00:54:39;58.90;46.30;27.00
50587;PMS7003;70782;50.514;30.816;2023-11-21T00:55:42;58.50;47.50;29.50
50587;PMS7003;70782;50.514;30.816;2023-11-21T00:56:44;34.30;29.10;7.30
50587;PMS7003;70782;50.514;30.816;2023-11-21T00:57:47;49.70;42.60;29.80
50587;PMS7003;70782;50.514;30.816;2023-11-21T00:58:49;56.30;45.20;29.90
50587;PMS7003;70782;50.514;30.816;2023-11-21T00:59:52;58.70;45.80;28.10
50587;PMS7003;70782;50.514;30.816;2023-11-21T01:00:54;52.50;44.80;27.20
50587;PMS7003;70782;50.514;30.816;2023-11-21T01:01:57;43.20;38.50;23.10
50587;PMS7003;70782;50.514;30.816;2023-11-21T01:03:00;51.73;44.18;26.55
50587;PMS7003;70782;50.514;30.816;2023-11-21T01:04:02;49.40;42.00;27.80
50587;PMS7003;70782;50.514;30.816;2023-11-21T01:05:05;49.40;40.90;24.10
50587;PMS7003;70782;50.514;30.816;2023-11-21T01:06:09;47.90;39.30;25.10
50587;PMS7003;70782;50.514;30.816;2023-11-21T01:07:13;44.20;38.50;24.00
50587;PMS7003;70782;50.514;30.816;2023-11-21T01:08:15;46.10;39.30;25.60
50587;PMS7003;70782;50.514;30.816;2023-11-21T01:09:18;47.00;39.90;25.60
50587;PMS7003;70782;50.514;30.816;2023-11-21T01:10:21;44.40;39.10;24.70
50587;PMS7003;70782;50.514;30.816;2023-11-21T01:11:23;44.00;38.10;22.40
50587;PMS7003;70782;50.514;30.816;2023-11-21T01:12:26;40.30;35.40;22.80
50587;PMS7003;70782;50.514;30.816;2023-11-21T01:13:30;38.60;35.50;21.80
50587;PMS7003;70782;50.514;30.816;2023-11-21T01:14:33;35.00;32.10;21.20
50587;PMS7003;70782;50.514;30.816;2023-11-21T01:15:36;28.20;26.80;18.40
50587;PMS7003;70782;50.514;30.816;2023-11-21T01:16:38;30.90;27.00;16.10
50587;PMS7003;70782;50.514;30.816;2023-11-21T01:17:41;31.00;28.09;18.00
50587;PMS7003;70782;50.514;30.816;2023-11-21T01:18:44;27.10;23.00;16.40
50587;PMS7003;70782;50.514;30.816;2023-11-21T01:19:47;25.10;24.40;17.20
50587;PMS7003;70782;50.514;30.816;2023-11-21T01:20:51;24.20;21.70;10.30
50587;PMS7003;70782;50.514;30.816;2023-11-21T01:21:53;32.70;29.80;17.60
50587;PMS7003;70782;50.514;30.816;2023-11-21T01:22:56;39.40;33.70;22.30
50587;PMS7003;70782;50.514;30.816;2023-11-21T01:23:58;40.60;37.70;23.90
50587;PMS7003;70782;50.514;30.816;2023-11-21T01:25:01;45.70;41.20;25.90
50587;PMS7003;70782;50.514;30.816;2023-11-21T01:26:04;53.00;42.50;26.60
50587;PMS7003;70782;50.514;30.816;2023-11-21T01:27:06;49.30;43.40;26.40
50587;PMS7003;70782;50.514;30.816;2023-11-21T01:28:09;46.30;39.60;24.50
50587;PMS7003;70782;50.514;30.816;2023-11-21T01:29:12;38.90;33.80;20.90
50587;PMS7003;70782;50.514;30.816;2023-11-21T01:30:15;36.80;30.80;19.50
50587;PMS7003;70782;50.514;30.816;2023-11-21T01:31:17;34.00;30.90;19.90
50587;PMS7003;70782;50.514;30.816;2023-11-21T01:32:21;30.70;27.80;17.70
50587;PMS7003;70782;50.514;30.816;2023-11-21T01:33:23;29.00;25.50;15.20
50587;PMS7003;70782;50.514;30.816;2023-11-21T01:34:27;33.10;30.20;19.20
50587;PMS7003;70782;50.514;30.816;2023-11-21T01:35:29;31.50;29.60;20.00
50587;PMS7003;70782;50.514;30.816;2023-11-21T01:36:32;34.27;33.91;22.45
50587;PMS7003;70782;50.514;30.816;2023-11-21T01:37:35;44.27;39.73;25.91
50587;PMS7003;70782;50.514;30.816;2023-11-21T01:38:38;44.09;39.82;25.00
50587;PMS7003;70782;50.514;30.816;2023-11-21T01:39:40;44.30;37.80;24.60
50587;PMS7003;70782;50.514;30.816;2023-11-21T01:40:43;40.91;38.82;25.09
50587;PMS7003;70782;50.514;30.816;2023-11-21T01:41:47;35.10;32.80;22.40
50587;PMS7003;70782;50.514;30.816;2023-11-21T01:42:49;37.20;34.70;21.60
50587;PMS7003;70782;50.514;30.816;2023-11-21T01:43:51;34.90;31.80;21.40
50587;PMS7003;70782;50.514;30.816;2023-11-21T01:44:54;53.60;42.70;28.50
50587;PMS7003;70782;50.514;30.816;2023-11-21T01:45:57;53.80;44.70;27.30
50587;PMS7003;70782;50.514;30.816;2023-11-21T01:47:00;56.00;44.40;26.50
50587;PMS7003;70782;50.514;30.816;2023-11-21T01:48:03;49.40;43.80;27.60
50587;PMS7003;70782;50.514;30.816;2023-11-21T01:49:06;52.18;42.45;26.27
50587;PMS7003;70782;50.514;30.816;2023-11-21T01:50:09;47.82;40.73;26.55
50587;PMS7003;70782;50.514;30.816;2023-11-21T01:51:15;39.60;37.90;25.30
50587;PMS7003;70782;50.514;30.816;2023-11-21T01:52:19;36.50;34.40;22.50
50587;PMS7003;70782;50.514;30.816;2023-11-21T01:53:23;22.90;18.30;10.30
50587;PMS7003;70782;50.514;30.816;2023-11-21T01:54:26;37.10;30.90;20.50
50587;PMS7003;70782;50.514;30.816;2023-11-21T01:55:29;37.30;30.70;21.20
50587;PMS7003;70782;50.514;30.816;2023-11-21T01:56:32;37.30;33.90;20.40
50587;PMS7003;70782;50.514;30.816;2023-11-21T01:57:35;30.50;28.50;20.90
50587;PMS7003;70782;50.514;30.816;2023-11-21T01:58:38;39.64;33.36;20.73
50587;PMS7003;70782;50.514;30.816;2023-11-21T01:59:41;34.70;31.70;20.90
50587;PMS7003;70782;50.514;30.816;2023-11-21T02:00:45;31.80;31.30;22.00
50587;PMS7003;70782;50.514;30.816;2023-11-21T02:01:48;36.80;32.40;23.50
50587;PMS7003;70782;50.514;30.816;2023-11-21T02:02:50;45.00;38.40;24.80
50587;PMS7003;70782;50.514;30.816;2023-11-21T02:03:53;44.40;37.80;24.70
50587;PMS7003;70782;50.514;30.816;2023-11-21T02:04:55;45.00;40.20;26.00
50587;PMS7003;70782;50.514;30.816;2023-11-21T02:05:58;45.70;40.00;24.90
50587;PMS7003;70782;50.514;30.816;2023-11-21T02:07:01;38.80;36.70;27.70
50587;PMS7003;70782;50.514;30.816;2023-11-21T02:08:04;46.45;39.09;25.09
50587;PMS7003;70782;50.514;30.816;2023-11-21T02:09:06;48.60;41.00;28.10
50587;PMS7003;70782;50.514;30.816;2023-11-21T02:10:09;46.73;40.82;26.64
50587;PMS7003;70782;50.514;30.816;2023-11-21T02:11:12;46.50;39.50;25.30
50587;PMS7003;70782;50.514;30.816;2023-11-21T02:12:15;48.18;40.45;26.27
50587;PMS7003;70782;50.514;30.816;2023-11-21T02:13:17;41.80;37.90;25.10
50587;PMS7003;70782;50.514;30.816;2023-11-21T02:14:20;47.50;40.10;25.20
50587;PMS7003;70782;50.514;30.816;2023-11-21T02:15:23;47.36;41.45;26.55
50587;PMS7003;70782;50.514;30.816;2023-11-21T02:16:26;43.10;38.90;25.90
50587;PMS7003;70782;50.514;30.816;2023-11-21T02:17:30;45.10;40.30;24.30
50587;PMS7003;70782;50.514;30.816;2023-11-21T02:18:32;49.00;40.40;25.50
50587;PMS7003;70782;50.514;30.816;2023-11-21T02:19:35;52.30;41.10;26.00
50587;PMS7003;70782;50.514;30.816;2023-11-21T02:20:38;47.50;41.40;25.70
50587;PMS7003;70782;50.514;30.816;2023-11-21T02:21:40;49.90;42.30;25.70
50587;PMS7003;70782;50.514;30.816;2023-11-21T02:22:48;40.70;38.30;24.70
50587;PMS7003;70782;50.514;30.816;2023-11-21T02:23:59;8.10;3.00;2.00
50587;PMS7003;70782;50.514;30.816;2023-11-21T02:25:01;48.60;40.80;25.50
50587;PMS7003;70782;50.514;30.816;2023-11-21T02:26:05;42.50;39.10;24.10
50587;PMS7003;70782;50.514;30.816;2023-11-21T02:27:08;41.40;38.20;23.90
50587;PMS7003;70782;50.514;30.816;2023-11-21T02:28:10;44.10;40.00;24.40
50587;PMS7003;70782;50.514;30.816;2023-11-21T02:29:12;47.10;40.50;26.10
50587;PMS7003;70782;50.514;30.816;2023-11-21T02:30:15;45.00;39.20;25.60
50587;PMS7003;70782;50.514;30.816;2023-11-21T02:31:18;51.50;39.20;23.60
50587;PMS7003;70782;50.514;30.816;2023-11-21T02:32:21;46.09;38.27;25.45
50587;PMS7003;70782;50.514;30.816;2023-11-21T02:33:23;53.00;43.90;28.70
50587;PMS7003;70782;50.514;30.816;2023-11-21T02:34:27;62.80;51.00;33.00
50587;PMS7003;70782;50.514;30.816;2023-11-21T02:35:29;70.70;55.50;35.70
50587;PMS7003;70782;50.514;30.816;2023-11-21T02:36:33;71.90;58.10;38.40
50587;PMS7003;70782;50.514;30.816;2023-11-21T02:37:36;76.20;61.50;40.20
50587;PMS7003;70782;50.514;30.816;2023-11-21T02:38:39;85.30;65.10;40.60
50587;PMS7003;70782;50.514;30.816;2023-11-21T02:39:42;80.80;63.80;40.60
50587;PMS7003;70782;50.514;30.816;2023-11-21T02:40:45;81.18;64.09;40.73
50587;PMS7003;70782;50.514;30.816;2023-11-21T02:41:47;76.80;60.90;38.60
50587;PMS7003;70782;50.514;30.816;2023-11-21T02:42:50;75.50;57.90;36.10
50587;PMS7003;70782;50.514;30.816;2023-11-21T02:43:53;71.82;58.18;36.91
50587;PMS7003;70782;50.514;30.816;2023-11-21T02:44:56;70.80;57.40;36.70
50587;PMS7003;70782;50.514;30.816;2023-11-21T02:45:58;71.20;55.60;35.90
50587;PMS7003;70782;50.514;30.816;2023-11-21T02:47:01;66.10;55.20;35.20
50587;PMS7003;70782;50.514;30.816;2023-11-21T02:48:04;74.20;56.30;35.50
50587;PMS7003;70782;50.514;30.816;2023-11-21T02:49:07;73.40;58.20;37.30
50587;PMS7003;70782;50.514;30.816;2023-11-21T02:50:10;71.73;56.91;36.00
50587;PMS7003;70782;50.514;30.816;2023-11-21T02:51:13;69.80;55.70;36.10
50587;PMS7003;70782;50.514;30.816;2023-11-21T02:52:15;64.70;52.90;34.30
50587;PMS7003;70782;50.514;30.816;2023-11-21T02:53:18;64.50;50.00;30.80
50587;PMS7003;70782;50.514;30.816;2023-11-21T02:54:21;61.90;48.80;30.80
50587;PMS7003;70782;50.514;30.816;2023-11-21T02:55:23;63.20;50.60;32.60
50587;PMS7003;70782;50.514;30.816;2023-11-21T02:56:26;66.00;51.90;32.70
50587;PMS7003;70782;50.514;30.816;2023-11-21T02:57:28;66.00;51.60;32.70
50587;PMS7003;70782;50.514;30.816;2023-11-21T02:58:31;65.70;51.30;33.30
50587;PMS7003;70782;50.514;30.816;2023-11-21T02:59:33;64.18;50.82;32.64
50587;PMS7003;70782;50.514;30.816;2023-11-21T03:00:37;60.80;50.90;31.90
50587;PMS7003;70782;50.514;30.816;2023-11-21T03:01:40;65.90;53.00;33.70
50587;PMS7003;70782;50.514;30.816;2023-11-21T03:02:43;64.00;51.73;33.55
50587;PMS7003;70782;50.514;30.816;2023-11-21T03:03:46;69.18;55.09;32.45
50587;PMS7003;70782;50.514;30.816;2023-11-21T03:04:49;59.73;48.64;30.36
50587;PMS7003;70782;50.514;30.816;2023-11-21T03:05:52;61.20;50.80;33.60
50587;PMS7003;70782;50.514;30.816;2023-11-21T03:06:55;65.00;51.30;31.90
50587;PMS7003;70782;50.514;30.816;2023-11-21T03:07:58;63.20;52.30;32.20
50587;PMS7003;70782;50.514;30.816;2023-11-21T03:09:01;64.09;51.00;32.36
50587;PMS7003;70782;50.514;30.816;2023-11-21T03:10:04;59.91;48.55;30.18
50587;PMS7003;70782;50.514;30.816;2023-11-21T03:11:07;72.20;56.10;36.00
50587;PMS7003;70782;50.514;30.816;2023-11-21T03:12:10;71.60;57.40;36.80
50587;PMS7003;70782;50.514;30.816;2023-11-21T03:13:12;68.00;55.10;35.60
50587;PMS7003;70782;50.514;30.816;2023-11-21T03:14:15;70.40;56.20;36.80
50587;PMS7003;70782;50.514;30.816;2023-11-21T03:15:18;75.10;57.30;36.50
50587;PMS7003;70782;50.514;30.816;2023-11-21T03:16:20;70.55;56.91;36.82
50587;PMS7003;70782;50.514;30.816;2023-11-21T03:17:23;75.40;55.60;36.30
50587;PMS7003;70782;50.514;30.816;2023-11-21T03:18:26;67.90;54.40;32.80
50587;PMS7003;70782;50.514;30.816;2023-11-21T03:19:28;59.80;49.30;32.40
50587;PMS7003;70782;50.514;30.816;2023-11-21T03:20:31;62.10;49.50;30.70
50587;PMS7003;70782;50.514;30.816;2023-11-21T03:21:34;51.70;43.70;27.80
50587;PMS7003;70782;50.514;30.816;2023-11-21T03:22:37;53.90;46.80;29.70
50587;PMS7003;70782;50.514;30.816;2023-11-21T03:23:40;48.50;42.50;28.30
50587;PMS7003;70782;50.514;30.816;2023-11-21T03:24:42;50.00;43.30;27.50
50587;PMS7003;70782;50.514;30.816;2023-11-21T03:25:45;45.60;40.90;26.40
50587;PMS7003;70782;50.514;30.816;2023-11-21T03:26:48;36.91;30.55;18.27
50587;PMS7003;70782;50.514;30.816;2023-11-21T03:27:51;46.70;41.60;28.30
50587;PMS7003;70782;50.514;30.816;2023-11-21T03:28:54;48.90;44.40;28.60
50587;PMS7003;70782;50.514;30.816;2023-11-21T03:29:56;60.20;47.00;29.80
50587;PMS7003;70782;50.514;30.816;2023-11-21T03:30:59;11.50;5.50;1.70
50587;PMS7003;70782;50.514;30.816;2023-11-21T03:32:01;51.90;43.00;28.60
50587;PMS7003;70782;50.514;30.816;2023-11-21T03:33:04;56.90;45.30;29.20
50587;PMS7003;70782;50.514;30.816;2023-11-21T03:34:10;38.60;36.40;25.70
50587;PMS7003;70782;50.514;30.816;2023-11-21T03:35:25;26.40;21.70;7.20
50587;PMS7003;70782;50.514;30.816;2023-11-21T03:36:28;37.64;35.55;23.45
50587;PMS7003;70782;50.514;30.816;2023-11-21T03:37:30;34.90;32.20;20.80
50587;PMS7003;70782;50.514;30.816;2023-11-21T03:38:33;40.10;35.60;24.80
50587;PMS7003;70782;50.514;30.816;2023-11-21T03:39:36;47.00;39.40;24.80
50587;PMS7003;70782;50.514;30.816;2023-11-21T03:40:38;49.80;41.90;27.10
50587;PMS7003;70782;50.514;30.816;2023-11-21T03:41:41;52.90;42.70;28.40
50587;PMS7003;70782;50.514;30.816;2023-11-21T03:42:43;59.50;49.50;30.70
50587;PMS7003;70782;50.514;30.816;2023-11-21T03:43:46;59.20;49.40;30.10
50587;PMS7003;70782;50.514;30.816;2023-11-21T03:44:49;58.50;48.80;31.80
50587;PMS7003;70782;50.514;30.816;2023-11-21T03:45:51;64.50;52.80;33.80
50587;PMS7003;70782;50.514;30.816;2023-11-21T03:46:54;64.91;52.09;32.18
50587;PMS7003;70782;50.514;30.816;2023-11-21T03:47:57;65.40;52.50;34.30
50587;PMS7003;70782;50.514;30.816;2023-11-21T03:48:59;75.90;59.30;37.50
50587;PMS7003;70782;50.514;30.816;2023-11-21T03:50:02;82.20;64.20;38.80
50587;PMS7003;70782;50.514;30.816;2023-11-21T03:51:05;90.18;69.82;42.55
50587;PMS7003;70782;50.514;30.816;2023-11-21T03:52:09;99.30;80.30;46.60
50587;PMS7003;70782;50.514;30.816;2023-11-21T03:53:12;108.50;92.50;49.70
50587;PMS7003;70782;50.514;30.816;2023-11-21T03:54:14;122.10;110.50;59.60
50587;PMS7003;70782;50.514;30.816;2023-11-21T03:55:17;143.60;120.80;64.30
50587;PMS7003;70782;50.514;30.816;2023-11-21T03:56:20;146.70;129.10;72.60
50587;PMS7003;70782;50.514;30.816;2023-11-21T03:57:22;149.30;129.40;72.40
50587;PMS7003;70782;50.514;30.816;2023-11-21T03:58:25;163.40;131.80;71.20
50587;PMS7003;70782;50.514;30.816;2023-11-21T03:59:27;125.40;115.30;68.20
50587;PMS7003;70782;50.514;30.816;2023-11-21T04:00:30;132.40;117.60;66.50
50587;PMS7003;70782;50.514;30.816;2023-11-21T04:01:33;129.70;114.90;64.70
50587;PMS7003;70782;50.514;30.816;2023-11-21T04:02:36;124.10;109.70;61.80
50587;PMS7003;70782;50.514;30.816;2023-11-21T04:03:39;106.70;91.30;50.00
50587;PMS7003;70782;50.514;30.816;2023-11-21T04:04:41;112.00;99.30;57.50
50587;PMS7003;70782;50.514;30.816;2023-11-21T04:05:44;108.00;95.10;54.90
50587;PMS7003;70782;50.514;30.816;2023-11-21T04:06:47;111.90;93.40;50.80
50587;PMS7003;70782;50.514;30.816;2023-11-21T04:07:50;103.00;86.80;51.00
50587;PMS7003;70782;50.514;30.816;2023-11-21T04:08:52;103.10;85.10;49.90
50587;PMS7003;70782;50.514;30.816;2023-11-21T04:09:55;92.70;68.80;43.60
50587;PMS7003;70782;50.514;30.816;2023-11-21T04:10:58;97.50;79.10;45.50
50587;PMS7003;70782;50.514;30.816;2023-11-21T04:12:00;94.70;72.00;40.90
50587;PMS7003;70782;50.514;30.816;2023-11-21T04:13:02;94.50;77.90;46.60
50587;PMS7003;70782;50.514;30.816;2023-11-21T04:14:05;98.80;79.30;45.20
50587;PMS7003;70782;50.514;30.816;2023-11-21T04:15:08;91.20;69.80;41.80
50587;PMS7003;70782;50.514;30.816;2023-11-21T04:16:12;86.30;67.00;40.20
50587;PMS7003;70782;50.514;30.816;2023-11-21T04:17:17;77.20;61.10;37.30
50587;PMS7003;70782;50.514;30.816;2023-11-21T04:18:21;77.80;61.60;38.00
50587;PMS7003;70782;50.514;30.816;2023-11-21T04:19:24;81.40;63.30;39.10
50587;PMS7003;70782;50.514;30.816;2023-11-21T04:20:26;78.10;61.70;38.10
50587;PMS7003;70782;50.514;30.816;2023-11-21T04:21:29;76.90;60.20;37.40
50587;PMS7003;70782;50.514;30.816;2023-11-21T04:22:31;77.40;58.70;35.90
50587;PMS7003;70782;50.514;30.816;2023-11-21T04:23:35;76.80;58.00;36.00
50587;PMS7003;70782;50.514;30.816;2023-11-21T04:24:38;69.70;57.20;35.10
50587;PMS7003;70782;50.514;30.816;2023-11-21T04:25:40;69.00;54.90;35.10
50587;PMS7003;70782;50.514;30.816;2023-11-21T04:26:43;73.20;57.80;34.70
50587;PMS7003;70782;50.514;30.816;2023-11-21T04:27:46;75.40;60.70;38.20
50587;PMS7003;70782;50.514;30.816;2023-11-21T04:28:48;76.30;60.70;37.00
50587;PMS7003;70782;50.514;30.816;2023-11-21T04:29:51;77.90;61.10;37.60
50587;PMS7003;70782;50.514;30.816;2023-11-21T04:30:54;82.82;63.45;38.55
50587;PMS7003;70782;50.514;30.816;2023-11-21T04:31:57;77.80;61.30;37.90
50587;PMS7003;70782;50.514;30.816;2023-11-21T04:33:00;77.70;58.20;32.80
50587;PMS7003;70782;50.514;30.816;2023-11-21T04:34:02;76.90;59.00;37.10
50587;PMS7003;70782;50.514;30.816;2023-11-21T04:35:05;75.10;58.30;35.30
50587;PMS7003;70782;50.514;30.816;2023-11-21T04:36:08;79.30;61.50;38.60
50587;PMS7003;70782;50.514;30.816;2023-11-21T04:37:11;82.00;65.30;39.90
50587;PMS7003;70782;50.514;30.816;2023-11-21T04:38:13;82.90;65.60;41.70
50587;PMS7003;70782;50.514;30.816;2023-11-21T04:39:16;91.18;71.18;42.73
50587;PMS7003;70782;50.514;30.816;2023-11-21T04:40:19;88.10;72.30;43.30
50587;PMS7003;70782;50.514;30.816;2023-11-21T04:41:21;95.60;76.50;44.90
50587;PMS7003;70782;50.514;30.816;2023-11-21T04:42:24;97.70;79.00;44.10
50587;PMS7003;70782;50.514;30.816;2023-11-21T04:43:26;99.70;85.40;48.90
50587;PMS7003;70782;50.514;30.816;2023-11-21T04:44:29;104.90;86.50;49.60
50587;PMS7003;70782;50.514;30.816;2023-11-21T04:45:31;109.80;95.20;54.10
50587;PMS7003;70782;50.514;30.816;2023-11-21T04:46:34;108.80;79.60;43.70
50587;PMS7003;70782;50.514;30.816;2023-11-21T04:47:37;148.00;127.80;66.90
50587;PMS7003;70782;50.514;30.816;2023-11-21T04:48:40;125.80;110.20;60.30
50587;PMS7003;70782;50.514;30.816;2023-11-21T04:49:42;94.20;72.10;44.90
50587;PMS7003;70782;50.514;30.816;2023-11-21T04:50:45;120.40;100.20;56.30
50587;PMS7003;70782;50.514;30.816;2023-11-21T04:51:48;69.00;50.70;39.10
50587;PMS7003;70782;50.514;30.816;2023-11-21T04:52:50;117.60;103.60;57.70
50587;PMS7003;70782;50.514;30.816;2023-11-21T04:53:53;124.70;101.60;57.30
50587;PMS7003;70782;50.514;30.816;2023-11-21T04:54:55;108.50;93.70;47.00
50587;PMS7003;70782;50.514;30.816;2023-11-21T04:55:58;101.90;83.60;46.70
50587;PMS7003;70782;50.514;30.816;2023-11-21T04:57:00;105.40;92.70;53.10
50587;PMS7003;70782;50.514;30.816;2023-11-21T04:58:03;111.20;91.60;51.10
50587;PMS7003;70782;50.514;30.816;2023-11-21T04:59:05;101.50;84.20;47.50
50587;PMS7003;70782;50.514;30.816;2023-11-21T05:00:11;90.60;69.10;42.50
50587;PMS7003;70782;50.514;30.816;2023-11-21T05:01:14;93.80;74.40;43.80
50587;PMS7003;70782;50.514;30.816;2023-11-21T05:02:17;82.70;65.10;39.20
50587;PMS7003;70782;50.514;30.816;2023-11-21T05:03:21;85.80;65.90;41.10
50587;PMS7003;70782;50.514;30.816;2023-11-21T05:04:24;77.80;61.60;40.00
50587;PMS7003;70782;50.514;30.816;2023-11-21T05:05:27;79.80;59.10;33.70
50587;PMS7003;70782;50.514;30.816;2023-11-21T05:06:29;82.50;63.00;39.30
50587;PMS7003;70782;50.514;30.816;2023-11-21T05:07:32;78.70;63.50;39.80
50587;PMS7003;70782;50.514;30.816;2023-11-21T05:08:34;77.90;60.60;38.50
50587;PMS7003;70782;50.514;30.816;2023-11-21T05:09:40;75.60;59.30;37.90
50587;PMS7003;70782;50.514;30.816;2023-11-21T05:10:45;75.50;57.90;36.00
50587;PMS7003;70782;50.514;30.816;2023-11-21T05:11:47;74.00;58.00;36.00
50587;PMS7003;70782;50.514;30.816;2023-11-21T05:12:50;74.60;58.50;36.30
50587;PMS7003;70782;50.514;30.816;2023-11-21T05:13:52;71.80;57.40;36.40
50587;PMS7003;70782;50.514;30.816;2023-11-21T05:14:55;77.00;61.00;36.30
50587;PMS7003;70782;50.514;30.816;2023-11-21T05:15:57;74.30;57.70;35.10
50587;PMS7003;70782;50.514;30.816;2023-11-21T05:17:00;74.30;58.00;35.90
50587;PMS7003;70782;50.514;30.816;2023-11-21T05:18:03;78.00;59.10;35.10
50587;PMS7003;70782;50.514;30.816;2023-11-21T05:19:05;78.20;60.10;35.90
50587;PMS7003;70782;50.514;30.816;2023-11-21T05:20:09;79.20;60.80;37.30
50587;PMS7003;70782;50.514;30.816;2023-11-21T05:21:12;80.10;61.10;36.70
50587;PMS7003;70782;50.514;30.816;2023-11-21T05:22:15;84.10;65.40;39.10
50587;PMS7003;70782;50.514;30.816;2023-11-21T05:23:17;85.00;66.10;38.00
50587;PMS7003;70782;50.514;30.816;2023-11-21T05:24:20;86.50;64.80;38.60
50587;PMS7003;70782;50.514;30.816;2023-11-21T05:25:22;86.70;65.80;40.20
50587;PMS7003;70782;50.514;30.816;2023-11-21T05:26:25;85.10;65.90;38.00
50587;PMS7003;70782;50.514;30.816;2023-11-21T05:27:28;89.90;68.60;40.40
50587;PMS7003;70782;50.514;30.816;2023-11-21T05:28:30;95.70;72.20;42.70
50587;PMS7003;70782;50.514;30.816;2023-11-21T05:29:33;91.00;69.80;42.40
50587;PMS7003;70782;50.514;30.816;2023-11-21T05:30:35;99.20;75.50;43.40
50587;PMS7003;70782;50.514;30.816;2023-11-21T05:31:38;99.20;77.70;44.80
50587;PMS7003;70782;50.514;30.816;2023-11-21T05:32:41;72.70;54.60;15.60
50587;PMS7003;70782;50.514;30.816;2023-11-21T05:33:44;96.80;79.50;45.60
50587;PMS7003;70782;50.514;30.816;2023-11-21T05:34:47;91.80;73.40;45.50
50587;PMS7003;70782;50.514;30.816;2023-11-21T05:35:49;98.60;78.20;46.60
50587;PMS7003;70782;50.514;30.816;2023-11-21T05:36:52;100.50;78.90;45.40
50587;PMS7003;70782;50.514;30.816;2023-11-21T05:37:54;98.10;79.10;45.50
50587;PMS7003;70782;50.514;30.816;2023-11-21T05:38:57;95.30;71.40;43.80
50587;PMS7003;70782;50.514;30.816;2023-11-21T05:39:59;85.80;66.30;39.90
50587;PMS7003;70782;50.514;30.816;2023-11-21T05:41:02;87.40;66.50;40.60
50587;PMS7003;70782;50.514;30.816;2023-11-21T05:42:05;87.40;65.80;39.70
50587;PMS7003;70782;50.514;30.816;2023-11-21T05:43:07;85.70;65.10;40.00
50587;PMS7003;70782;50.514;30.816;2023-11-21T05:44:10;83.70;66.30;41.60
50587;PMS7003;70782;50.514;30.816;2023-11-21T05:45:12;86.70;66.10;41.20
50587;PMS7003;70782;50.514;30.816;2023-11-21T05:46:15;88.55;68.64;43.09
50587;PMS7003;70782;50.514;30.816;2023-11-21T05:47:18;85.30;66.30;40.40
50587;PMS7003;70782;50.514;30.816;2023-11-21T05:48:21;59.50;46.50;11.60
50587;PMS7003;70782;50.514;30.816;2023-11-21T05:49:24;91.10;71.70;42.70
50587;PMS7003;70782;50.514;30.816;2023-11-21T05:50:27;102.09;82.09;45.82